createdAt,value
2022-12-03T00:00:13.172Z,1.81
2022-12-03T00:01:16.236Z,1.88
2022-12-03T00:02:19.015Z,1.88
2022-12-03T00:03:55.678Z,1.88
2022-12-03T00:04:59.041Z,1.88
2022-12-03T00:06:01.776Z,1.81
2022-12-03T00:07:41.456Z,1.81
2022-12-03T00:08:45.034Z,1.81
2022-12-03T00:09:47.877Z,1.81
2022-12-03T00:11:22.464Z,1.81
2022-12-03T00:12:25.136Z,1.81
2022-12-03T00:13:28.250Z,1.81
2022-12-03T00:15:03.128Z,1.81
2022-12-03T00:16:06.188Z,1.81
2022-12-03T00:17:09.768Z,1.81
2022-12-03T00:18:44.311Z,1.81
2022-12-03T00:19:47.355Z,1.81
2022-12-03T00:20:50.040Z,1.88
2022-12-03T00:22:24.655Z,1.88
2022-12-03T00:23:27.512Z,1.88
2022-12-03T00:24:37.450Z,1.88
2022-12-03T00:26:12.524Z,1.88
2022-12-03T00:27:15.234Z,1.88
2022-12-03T00:28:18.006Z,1.88
2022-12-03T00:29:52.636Z,1.88
2022-12-03T00:30:55.495Z,1.88
2022-12-03T00:31:58.801Z,1.88
2022-12-03T00:33:33.353Z,1.88
2022-12-03T00:34:36.076Z,1.88
2022-12-03T00:35:39.362Z,1.88
2022-12-03T00:37:14.052Z,1.88
2022-12-03T00:38:16.726Z,1.88
2022-12-03T00:39:19.736Z,1.88
2022-12-03T00:40:54.326Z,1.88
2022-12-03T00:41:57.159Z,1.88
2022-12-03T00:42:59.971Z,1.88
2022-12-03T00:44:34.554Z,1.88
2022-12-03T00:45:38.068Z,1.88
2022-12-03T00:46:41.269Z,1.88
2022-12-03T00:48:16.941Z,1.88
2022-12-03T00:49:19.743Z,1.88
2022-12-03T00:50:22.462Z,1.88
2022-12-03T00:51:57.099Z,1.88
2022-12-03T00:52:59.913Z,1.88
2022-12-03T00:54:02.639Z,1.88
2022-12-03T00:55:44.241Z,1.88
2022-12-03T00:56:47.003Z,1.88
2022-12-03T00:57:49.748Z,1.88
2022-12-03T00:59:24.242Z,1.88
2022-12-03T01:00:12.314Z,1.88
2022-12-03T01:01:15.027Z,1.88
2022-12-03T01:02:18.701Z,1.88
2022-12-03T01:03:53.704Z,1.88
2022-12-03T01:04:57.054Z,1.88
2022-12-03T01:06:00.767Z,1.88
2022-12-03T01:07:35.297Z,1.88
2022-12-03T01:08:38.708Z,1.88
2022-12-03T01:09:41.508Z,1.88
2022-12-03T01:11:16.085Z,1.88
2022-12-03T01:12:18.876Z,1.88
2022-12-03T01:13:21.673Z,1.88
2022-12-03T01:14:56.441Z,1.88
2022-12-03T01:15:59.271Z,1.88
2022-12-03T01:17:02.719Z,1.88
2022-12-03T01:18:37.364Z,1.88
2022-12-03T01:19:44.878Z,1.88
2022-12-03T01:20:50.727Z,1.88
2022-12-03T01:22:25.209Z,1.88
2022-12-03T01:23:28.021Z,1.94
2022-12-03T01:24:30.702Z,1.88
2022-12-03T01:26:05.886Z,1.88
2022-12-03T01:27:08.592Z,1.94
2022-12-03T01:28:11.422Z,1.94
2022-12-03T01:29:46.141Z,1.94
2022-12-03T01:30:48.860Z,1.94
2022-12-03T01:31:52.295Z,1.94
2022-12-03T01:33:26.625Z,1.94
2022-12-03T01:34:29.424Z,1.94
2022-12-03T01:35:32.719Z,1.94
2022-12-03T01:37:07.229Z,1.94
2022-12-03T01:38:09.998Z,1.94
2022-12-03T01:39:12.633Z,1.94
2022-12-03T01:40:47.170Z,1.94
2022-12-03T01:41:57.368Z,1.94
2022-12-03T01:43:00.141Z,1.94
2022-12-03T01:44:34.606Z,1.94
2022-12-03T01:45:37.950Z,1.94
2022-12-03T01:46:40.855Z,1.94
2022-12-03T01:48:16.384Z,1.94
2022-12-03T01:49:19.338Z,1.94
2022-12-03T01:50:22.097Z,1.94
2022-12-03T01:51:56.777Z,1.94
2022-12-03T01:52:59.442Z,1.94
2022-12-03T01:54:02.314Z,1.94
2022-12-03T01:55:37.841Z,1.94
2022-12-03T01:56:45.974Z,1.94
2022-12-03T01:57:48.718Z,1.94
2022-12-03T01:59:23.467Z,1.94
2022-12-03T02:00:11.835Z,1.94
2022-12-03T02:01:14.496Z,1.94
2022-12-03T02:02:17.793Z,2.00
2022-12-03T02:03:52.396Z,2.00
2022-12-03T02:04:56.133Z,2.00
2022-12-03T02:05:59.096Z,2.00
2022-12-03T02:07:33.887Z,2.00
2022-12-03T02:08:37.242Z,2.00
2022-12-03T02:09:39.914Z,2.00
2022-12-03T02:11:14.504Z,2.00
2022-12-03T02:12:17.196Z,2.00
2022-12-03T02:13:19.854Z,2.00
2022-12-03T02:14:54.828Z,2.00
2022-12-03T02:15:57.933Z,2.00
2022-12-03T02:17:01.454Z,2.00
2022-12-03T02:18:35.948Z,2.00
2022-12-03T02:19:38.761Z,2.00
2022-12-03T02:20:41.654Z,2.00
2022-12-03T02:22:16.076Z,2.00
2022-12-03T02:23:18.934Z,2.00
2022-12-03T02:24:21.942Z,2.00
2022-12-03T02:25:56.980Z,2.00
2022-12-03T02:26:59.657Z,2.00
2022-12-03T02:28:02.492Z,2.00
2022-12-03T02:29:37.382Z,2.00
2022-12-03T02:30:40.156Z,2.00
2022-12-03T02:31:43.458Z,2.06
2022-12-03T02:33:18.321Z,2.06
2022-12-03T02:34:21.202Z,2.00
2022-12-03T02:35:23.786Z,2.00
2022-12-03T02:36:58.281Z,2.06
2022-12-03T02:38:00.935Z,2.06
2022-12-03T02:39:03.574Z,2.06
2022-12-03T02:40:38.174Z,2.06
2022-12-03T02:41:40.870Z,2.06
2022-12-03T02:42:43.579Z,2.06
2022-12-03T02:44:18.132Z,2.06
2022-12-03T02:45:20.874Z,2.06
2022-12-03T02:46:23.582Z,2.06
2022-12-03T02:47:58.744Z,2.06
2022-12-03T02:49:01.491Z,2.06
2022-12-03T02:50:04.165Z,2.06
2022-12-03T02:51:38.711Z,2.06
2022-12-03T02:52:41.402Z,2.06
2022-12-03T02:53:44.276Z,2.06
2022-12-03T02:55:18.792Z,2.06
2022-12-03T02:56:28.576Z,2.06
2022-12-03T02:57:31.423Z,2.06
2022-12-03T02:59:05.923Z,2.06
2022-12-03T03:00:12.392Z,2.06
2022-12-03T03:01:15.380Z,2.13
2022-12-03T03:02:19.157Z,2.06
2022-12-03T03:03:54.132Z,2.06
2022-12-03T03:04:56.811Z,2.06
2022-12-03T03:05:59.662Z,2.06
2022-12-03T03:07:34.181Z,2.06
2022-12-03T03:08:37.860Z,2.06
2022-12-03T03:09:40.714Z,2.06
2022-12-03T03:11:15.186Z,2.06
2022-12-03T03:12:17.981Z,2.06
2022-12-03T03:13:25.426Z,2.06
2022-12-03T03:14:59.969Z,2.06
2022-12-03T03:16:02.676Z,2.06
2022-12-03T03:17:05.985Z,2.06
2022-12-03T03:18:40.538Z,2.06
2022-12-03T03:19:43.535Z,2.06
2022-12-03T03:20:46.349Z,2.06
2022-12-03T03:22:20.819Z,2.13
2022-12-03T03:23:23.628Z,2.13
2022-12-03T03:24:26.322Z,2.06
2022-12-03T03:26:01.598Z,2.06
2022-12-03T03:27:04.447Z,2.06
2022-12-03T03:28:07.132Z,2.06
2022-12-03T03:29:41.664Z,2.06
2022-12-03T03:30:44.433Z,2.06
2022-12-03T03:31:47.445Z,2.06
2022-12-03T03:33:22.416Z,2.06
2022-12-03T03:34:25.238Z,2.06
2022-12-03T03:35:28.472Z,2.06
2022-12-03T03:37:03.038Z,2.06
2022-12-03T03:38:05.898Z,2.06
2022-12-03T03:39:08.558Z,2.06
2022-12-03T03:40:43.490Z,2.06
2022-12-03T03:41:46.139Z,2.06
2022-12-03T03:42:48.871Z,2.00
2022-12-03T03:44:23.364Z,2.00
2022-12-03T03:45:29.352Z,2.00
2022-12-03T03:46:33.072Z,2.00
2022-12-03T03:48:07.592Z,2.00
2022-12-03T03:49:10.491Z,2.00
2022-12-03T03:50:13.186Z,2.00
2022-12-03T03:51:47.829Z,2.00
2022-12-03T03:52:50.462Z,2.00
2022-12-03T03:53:53.272Z,2.00
2022-12-03T03:55:28.262Z,2.00
2022-12-03T03:56:31.117Z,2.00
2022-12-03T03:57:33.801Z,2.00
2022-12-03T03:59:08.327Z,2.00
2022-12-03T04:00:12.096Z,2.00
2022-12-03T04:01:14.876Z,2.00
2022-12-03T04:02:18.247Z,1.94
2022-12-03T04:03:52.871Z,1.94
2022-12-03T04:04:56.079Z,1.94
2022-12-03T04:05:58.955Z,1.94
2022-12-03T04:07:33.594Z,1.94
2022-12-03T04:08:36.961Z,1.94
2022-12-03T04:09:39.669Z,1.94
2022-12-03T04:11:14.171Z,1.94
2022-12-03T04:12:16.857Z,1.94
2022-12-03T04:13:19.588Z,1.94
2022-12-03T04:14:54.472Z,1.94
2022-12-03T04:15:57.185Z,1.94
2022-12-03T04:17:00.628Z,1.94
2022-12-03T04:18:35.228Z,1.94
2022-12-03T04:19:37.977Z,1.94
2022-12-03T04:20:40.714Z,1.94
2022-12-03T04:22:15.299Z,1.94
2022-12-03T04:23:18.065Z,1.94
2022-12-03T04:24:28.013Z,1.94
2022-12-03T04:26:03.507Z,1.94
2022-12-03T04:27:06.233Z,1.94
2022-12-03T04:28:08.953Z,1.94
2022-12-03T04:29:43.377Z,1.94
2022-12-03T04:30:46.236Z,1.94
2022-12-03T04:31:49.568Z,1.94
2022-12-03T04:33:24.081Z,1.94
2022-12-03T04:34:26.974Z,1.94
2022-12-03T04:35:30.542Z,1.94
2022-12-03T04:37:05.908Z,1.94
2022-12-03T04:38:08.660Z,1.94
2022-12-03T04:39:11.446Z,1.94
2022-12-03T04:40:45.836Z,1.94
2022-12-03T04:41:48.676Z,1.94
2022-12-03T04:42:51.418Z,1.94
2022-12-03T04:44:25.836Z,1.94
2022-12-03T04:45:29.009Z,1.94
2022-12-03T04:46:32.244Z,1.94
2022-12-03T04:48:14.599Z,1.94
2022-12-03T04:49:17.288Z,1.94
2022-12-03T04:50:20.101Z,1.94
2022-12-03T04:51:54.572Z,1.94
2022-12-03T04:52:57.331Z,1.94
2022-12-03T04:54:00.075Z,1.94
2022-12-03T04:55:34.957Z,1.94
2022-12-03T04:56:37.732Z,1.88
2022-12-03T04:57:40.474Z,1.88
2022-12-03T04:59:16.544Z,1.94
2022-12-03T05:00:12.719Z,1.94
2022-12-03T05:01:15.601Z,1.94
2022-12-03T05:02:19.653Z,1.94
2022-12-03T05:03:54.723Z,1.94
2022-12-03T05:04:57.575Z,1.94
2022-12-03T05:05:41.342Z,1.94
2022-12-03T05:06:44.444Z,1.88
2022-12-03T05:07:47.492Z,1.88
2022-12-03T05:09:22.796Z,1.88
2022-12-03T05:10:25.830Z,1.88
2022-12-03T05:11:28.626Z,1.88
2022-12-03T05:13:03.871Z,1.88
2022-12-03T05:14:06.808Z,1.88
2022-12-03T05:15:09.650Z,1.88
2022-12-03T05:16:44.709Z,1.88
2022-12-03T05:17:48.597Z,1.88
2022-12-03T05:18:51.674Z,1.88
2022-12-03T05:20:27.106Z,1.88
2022-12-03T05:21:38.889Z,1.88
2022-12-03T05:22:41.882Z,1.88
2022-12-03T05:24:17.207Z,1.81
2022-12-03T05:25:20.208Z,1.81
2022-12-03T05:26:23.542Z,1.81
2022-12-03T05:28:04.242Z,1.81
2022-12-03T05:29:07.344Z,1.81
2022-12-03T05:30:10.605Z,1.81
2022-12-03T05:31:46.339Z,1.81
2022-12-03T05:32:49.274Z,1.81
2022-12-03T05:33:52.227Z,1.81
2022-12-03T05:35:27.996Z,1.75
2022-12-03T05:36:30.958Z,1.75
2022-12-03T05:37:34.121Z,1.75
2022-12-03T05:39:08.905Z,1.75
2022-12-03T05:40:12.115Z,1.75
2022-12-03T05:41:15.145Z,1.75
2022-12-03T05:42:49.835Z,1.75
2022-12-03T05:43:53.190Z,1.75
2022-12-03T05:45:01.313Z,1.69
2022-12-03T05:46:36.721Z,1.69
2022-12-03T05:47:39.849Z,1.69
2022-12-03T05:48:42.631Z,1.69
2022-12-03T05:50:17.229Z,1.69
2022-12-03T05:51:20.085Z,1.69
2022-12-03T05:52:22.894Z,1.69
2022-12-03T05:53:57.701Z,1.69
2022-12-03T05:55:00.559Z,1.69
2022-12-03T05:56:03.533Z,1.69
2022-12-03T05:57:38.340Z,1.69
2022-12-03T05:58:41.065Z,1.63
2022-12-03T05:59:44.031Z,1.69
2022-12-03T06:00:12.080Z,1.63
2022-12-03T06:01:22.439Z,1.63
2022-12-03T06:02:25.600Z,1.63
2022-12-03T06:04:02.719Z,1.63
2022-12-03T06:05:05.904Z,1.63
2022-12-03T06:06:08.914Z,1.63
2022-12-03T06:07:49.139Z,1.63
2022-12-03T06:08:52.810Z,1.63
2022-12-03T06:09:55.809Z,1.63
2022-12-03T06:11:30.723Z,1.63
2022-12-03T06:12:33.653Z,1.63
2022-12-03T06:13:36.400Z,1.63
2022-12-03T06:15:11.211Z,1.63
2022-12-03T06:16:20.849Z,1.63
2022-12-03T06:17:24.565Z,1.63
2022-12-03T06:18:59.555Z,1.63
2022-12-03T06:20:02.378Z,1.63
2022-12-03T06:21:05.279Z,1.63
2022-12-03T06:22:39.920Z,1.63
2022-12-03T06:23:43.062Z,1.63
2022-12-03T06:24:46.005Z,1.63
2022-12-03T06:26:28.563Z,1.63
2022-12-03T06:27:31.543Z,1.63
2022-12-03T06:28:34.792Z,1.63
2022-12-03T06:30:09.711Z,1.63
2022-12-03T06:31:12.904Z,1.56
2022-12-03T06:32:16.763Z,1.56
2022-12-03T06:33:51.423Z,1.56
2022-12-03T06:34:54.650Z,1.56
2022-12-03T06:35:57.889Z,1.56
2022-12-03T06:37:39.583Z,1.63
2022-12-03T06:38:42.724Z,1.63
2022-12-03T06:39:45.794Z,1.63
2022-12-03T06:41:20.451Z,1.63
2022-12-03T06:42:23.449Z,1.63
2022-12-03T06:43:26.391Z,1.63
2022-12-03T06:45:01.078Z,1.56
2022-12-03T06:46:04.134Z,1.63
2022-12-03T06:47:07.688Z,1.56
2022-12-03T06:48:42.310Z,1.56
2022-12-03T06:49:45.131Z,1.56
2022-12-03T06:50:48.253Z,1.56
2022-12-03T06:52:23.005Z,1.56
2022-12-03T06:53:25.729Z,1.56
2022-12-03T06:54:28.542Z,1.56
2022-12-03T06:56:03.892Z,1.56
2022-12-03T06:57:26.015Z,1.56
2022-12-03T06:58:28.774Z,1.56
2022-12-03T07:00:12.641Z,1.56
2022-12-03T07:01:15.702Z,1.56
2022-12-03T07:02:19.223Z,1.56
2022-12-03T07:03:55.034Z,1.56
2022-12-03T07:04:58.478Z,1.56
2022-12-03T07:06:01.811Z,1.56
2022-12-03T07:07:36.737Z,1.56
2022-12-03T07:08:40.379Z,1.50
2022-12-03T07:09:43.331Z,1.50
2022-12-03T07:11:18.096Z,1.50
2022-12-03T07:12:21.260Z,1.50
2022-12-03T07:13:24.152Z,1.50
2022-12-03T07:14:59.187Z,1.50
2022-12-03T07:16:02.360Z,1.50
2022-12-03T07:17:05.914Z,1.56
2022-12-03T07:18:40.613Z,1.50
2022-12-03T07:19:43.398Z,1.50
2022-12-03T07:20:46.411Z,1.50
2022-12-03T07:22:21.233Z,1.50
2022-12-03T07:23:24.160Z,1.50
2022-12-03T07:24:26.959Z,1.50
2022-12-03T07:26:09.446Z,1.44
2022-12-03T07:27:12.309Z,1.50
2022-12-03T07:28:15.116Z,1.44
2022-12-03T07:29:49.993Z,1.44
2022-12-03T07:30:53.247Z,1.44
2022-12-03T07:31:56.685Z,1.44
2022-12-03T07:33:32.546Z,1.44
2022-12-03T07:34:35.604Z,1.44
2022-12-03T07:35:39.173Z,1.44
2022-12-03T07:37:16.583Z,1.50
2022-12-03T07:38:21.740Z,1.44
2022-12-03T07:39:24.754Z,1.44
2022-12-03T07:40:59.765Z,1.44
2022-12-03T07:42:02.786Z,1.44
2022-12-03T07:43:05.675Z,1.44
2022-12-03T07:44:48.990Z,1.44
2022-12-03T07:45:52.406Z,1.44
2022-12-03T07:46:55.965Z,1.38
2022-12-03T07:48:30.885Z,1.38
2022-12-03T07:49:34.030Z,1.38
2022-12-03T07:50:37.139Z,1.38
2022-12-03T07:52:18.379Z,1.38
2022-12-03T07:53:21.356Z,1.38
2022-12-03T07:54:24.308Z,1.38
2022-12-03T07:55:59.681Z,1.38
2022-12-03T07:57:02.552Z,1.38
2022-12-03T07:58:05.480Z,1.31
2022-12-03T07:59:39.987Z,1.31
2022-12-03T08:00:12.321Z,1.31
2022-12-03T08:01:15.661Z,1.38
2022-12-03T08:02:21.646Z,1.38
2022-12-03T08:03:57.345Z,1.38
2022-12-03T08:05:00.276Z,1.38
2022-12-03T08:06:03.336Z,1.38
2022-12-03T08:07:38.272Z,1.44
2022-12-03T08:08:41.735Z,1.44
2022-12-03T08:09:50.808Z,1.38
2022-12-03T08:11:25.749Z,1.38
2022-12-03T08:12:28.791Z,1.38
2022-12-03T08:13:31.969Z,1.38
2022-12-03T08:15:06.737Z,1.38
2022-12-03T08:16:17.659Z,1.38
2022-12-03T08:17:21.855Z,1.38
2022-12-03T08:18:56.693Z,1.31
2022-12-03T08:19:59.518Z,1.31
2022-12-03T08:21:02.381Z,1.31
2022-12-03T08:22:42.689Z,1.31
2022-12-03T08:23:45.751Z,1.31
2022-12-03T08:24:48.582Z,1.31
2022-12-03T08:26:24.197Z,1.25
2022-12-03T08:27:27.157Z,1.25
2022-12-03T08:28:29.960Z,1.25
2022-12-03T08:30:04.814Z,1.25
2022-12-03T08:31:07.696Z,1.19
2022-12-03T08:32:18.913Z,1.19
2022-12-03T08:33:53.791Z,1.19
2022-12-03T08:34:56.651Z,1.19
2022-12-03T08:35:59.664Z,1.19
2022-12-03T08:37:34.486Z,1.13
2022-12-03T08:38:37.375Z,1.19
2022-12-03T08:39:40.469Z,1.19
2022-12-03T08:41:15.372Z,1.13
2022-12-03T08:42:18.246Z,1.13
2022-12-03T08:43:21.212Z,1.19
2022-12-03T08:44:56.396Z,1.19
2022-12-03T08:45:59.751Z,1.19
2022-12-03T08:47:03.538Z,1.19
2022-12-03T08:48:39.277Z,1.19
2022-12-03T08:49:46.894Z,1.19
2022-12-03T08:50:50.073Z,1.19
2022-12-03T08:52:24.866Z,1.13
2022-12-03T08:53:27.660Z,1.13
2022-12-03T08:54:36.904Z,1.13
2022-12-03T08:56:12.139Z,1.13
2022-12-03T08:57:15.109Z,1.13
2022-12-03T08:58:18.205Z,1.13
2022-12-03T08:59:53.137Z,1.13
2022-12-03T09:00:11.967Z,1.13
2022-12-03T09:01:15.321Z,1.13
2022-12-03T09:02:18.879Z,1.13
2022-12-03T09:03:53.859Z,1.19
2022-12-03T09:04:57.480Z,1.19
2022-12-03T09:06:00.563Z,1.19
2022-12-03T09:07:36.038Z,1.13
2022-12-03T09:08:39.505Z,1.13
2022-12-03T09:09:47.355Z,1.19
2022-12-03T09:11:22.154Z,1.19
2022-12-03T09:12:25.255Z,1.19
2022-12-03T09:13:28.255Z,1.19
2022-12-03T09:15:05.098Z,1.25
2022-12-03T09:16:08.123Z,1.25
2022-12-03T09:17:12.139Z,1.25
2022-12-03T09:18:47.248Z,1.25
2022-12-03T09:19:50.281Z,1.25
2022-12-03T09:20:53.193Z,1.19
2022-12-03T09:22:28.236Z,1.25
2022-12-03T09:23:31.264Z,1.19
2022-12-03T09:24:34.288Z,1.19
2022-12-03T09:26:09.554Z,1.19
2022-12-03T09:27:12.576Z,1.19
2022-12-03T09:28:15.415Z,1.19
2022-12-03T09:29:57.859Z,1.13
2022-12-03T09:31:00.856Z,1.13
2022-12-03T09:32:03.980Z,1.13
2022-12-03T09:33:46.322Z,1.13
2022-12-03T09:34:49.253Z,1.13
2022-12-03T09:35:52.869Z,1.13
2022-12-03T09:37:27.777Z,1.13
2022-12-03T09:38:30.795Z,1.13
2022-12-03T09:39:39.803Z,1.13
2022-12-03T09:41:14.995Z,1.13
2022-12-03T09:42:18.245Z,1.13
2022-12-03T09:43:21.201Z,1.13
2022-12-03T09:45:41.681Z,1.19
2022-12-03T09:46:45.283Z,1.13
2022-12-03T09:47:48.093Z,1.19
2022-12-03T09:49:23.094Z,1.19
2022-12-03T09:50:26.293Z,1.19
2022-12-03T09:51:29.090Z,1.13
2022-12-03T09:53:05.350Z,1.13
2022-12-03T09:54:15.777Z,1.13
2022-12-03T09:55:24.701Z,1.06
2022-12-03T09:56:59.692Z,1.06
2022-12-03T09:58:02.655Z,1.06
2022-12-03T09:59:09.920Z,1.06
2022-12-03T10:00:12.636Z,1.06
2022-12-03T10:01:15.597Z,1.06
2022-12-03T10:02:22.855Z,1.00
2022-12-03T10:04:04.666Z,1.06
2022-12-03T10:05:08.426Z,1.06
2022-12-03T10:06:11.358Z,1.00
2022-12-03T10:07:52.909Z,1.00
2022-12-03T10:08:56.674Z,1.00
2022-12-03T10:09:59.773Z,0.94
2022-12-03T10:11:34.700Z,1.00
2022-12-03T10:12:37.694Z,1.00
2022-12-03T10:13:40.709Z,1.00
2022-12-03T10:15:15.717Z,0.94
2022-12-03T10:16:18.675Z,0.94
2022-12-03T10:17:22.601Z,0.94
2022-12-03T10:18:57.363Z,0.94
2022-12-03T10:20:00.144Z,0.94
2022-12-03T10:21:03.107Z,0.88
2022-12-03T10:22:38.141Z,0.88
2022-12-03T10:23:41.022Z,0.88
2022-12-03T10:24:49.528Z,0.88
2022-12-03T10:26:24.589Z,0.88
2022-12-03T10:27:27.718Z,0.88
2022-12-03T10:28:30.727Z,0.88
2022-12-03T10:30:13.593Z,0.88
2022-12-03T10:31:17.518Z,0.88
2022-12-03T10:32:20.781Z,0.88
2022-12-03T10:34:00.482Z,0.88
2022-12-03T10:35:03.527Z,0.81
2022-12-03T10:36:06.348Z,0.81
2022-12-03T10:37:41.375Z,0.81
2022-12-03T10:38:44.492Z,0.81
2022-12-03T10:39:52.490Z,0.88
2022-12-03T10:41:30.823Z,0.88
2022-12-03T10:42:33.833Z,0.81
2022-12-03T10:43:37.001Z,0.81
2022-12-03T10:45:11.867Z,0.81
2022-12-03T10:46:14.995Z,0.81
2022-12-03T10:47:19.481Z,0.81
2022-12-03T10:48:55.549Z,0.88
2022-12-03T10:49:58.669Z,0.88
2022-12-03T10:51:01.484Z,0.81
2022-12-03T10:52:36.420Z,0.88
2022-12-03T10:53:39.534Z,0.88
2022-12-03T10:54:42.588Z,0.88
2022-12-03T10:56:18.224Z,0.88
2022-12-03T10:57:21.096Z,0.88
2022-12-03T10:58:31.281Z,0.88
2022-12-03T11:00:12.308Z,0.88
2022-12-03T11:01:15.486Z,0.88
2022-12-03T11:02:19.271Z,0.88
2022-12-03T11:04:01.988Z,0.88
2022-12-03T11:05:05.216Z,0.81
2022-12-03T11:06:08.488Z,0.81
2022-12-03T11:07:43.484Z,0.81
2022-12-03T11:08:51.555Z,0.81
2022-12-03T11:10:05.921Z,0.81
2022-12-03T11:11:40.988Z,0.88
2022-12-03T11:12:44.256Z,0.81
2022-12-03T11:13:46.963Z,0.81
2022-12-03T11:15:30.066Z,0.81
2022-12-03T11:16:33.718Z,0.81
2022-12-03T11:17:37.003Z,0.81
2022-12-03T11:19:11.699Z,0.81
2022-12-03T11:20:18.144Z,0.81
2022-12-03T11:21:25.097Z,0.81
2022-12-03T11:23:00.256Z,0.88
2022-12-03T11:24:03.402Z,0.88
2022-12-03T11:25:06.595Z,0.88
2022-12-03T11:26:41.639Z,0.88
2022-12-03T11:27:44.775Z,0.88
2022-12-03T11:28:47.845Z,0.88
2022-12-03T11:30:22.867Z,0.88
2022-12-03T11:31:26.631Z,0.94
2022-12-03T11:32:32.084Z,0.88
2022-12-03T11:34:07.448Z,0.88
2022-12-03T11:35:10.822Z,0.88
2022-12-03T11:36:13.761Z,0.81
2022-12-03T11:38:25.630Z,0.81
2022-12-03T11:39:35.433Z,0.81
2022-12-03T11:40:39.893Z,0.81
2022-12-03T11:42:15.072Z,0.81
2022-12-03T11:43:18.384Z,0.75
2022-12-03T11:44:21.572Z,0.81
2022-12-03T11:46:02.651Z,0.81
2022-12-03T11:47:07.870Z,0.75
2022-12-03T11:48:11.277Z,0.75
2022-12-03T11:49:46.620Z,0.75
2022-12-03T11:50:50.409Z,0.75
2022-12-03T11:51:53.932Z,0.75
2022-12-03T11:53:29.388Z,0.75
2022-12-03T11:54:32.662Z,0.75
2022-12-03T11:55:36.070Z,0.75
2022-12-03T11:57:17.310Z,0.69
2022-12-03T11:58:20.659Z,0.69
2022-12-03T11:59:24.093Z,0.69
2022-12-03T12:00:11.820Z,0.69
2022-12-03T12:01:14.630Z,0.69
2022-12-03T12:02:24.688Z,0.69
2022-12-03T12:04:00.476Z,0.63
2022-12-03T12:05:04.096Z,0.63
2022-12-03T12:06:06.947Z,0.56
2022-12-03T12:07:41.791Z,0.56
2022-12-03T12:08:45.180Z,0.56
2022-12-03T12:09:48.071Z,0.56
2022-12-03T12:11:23.381Z,0.56
2022-12-03T12:12:26.287Z,0.56
2022-12-03T12:13:39.336Z,0.56
2022-12-03T12:15:13.880Z,0.56
2022-12-03T12:16:17.024Z,0.56
2022-12-03T12:17:20.783Z,0.56
2022-12-03T12:18:56.312Z,0.63
2022-12-03T12:19:59.883Z,0.63
2022-12-03T12:21:02.770Z,0.63
2022-12-03T12:22:37.456Z,0.63
2022-12-03T12:23:40.228Z,0.56
2022-12-03T12:24:42.944Z,0.56
2022-12-03T12:26:17.526Z,0.56
2022-12-03T12:27:20.350Z,0.56
2022-12-03T12:28:23.172Z,0.56
2022-12-03T12:29:58.095Z,0.63
2022-12-03T12:31:01.190Z,0.63
2022-12-03T12:32:04.543Z,0.63
2022-12-03T12:33:39.377Z,0.63
2022-12-03T12:34:42.268Z,0.69
2022-12-03T12:35:45.065Z,0.69
2022-12-03T12:37:19.658Z,0.69
2022-12-03T12:38:34.245Z,0.69
2022-12-03T12:39:37.157Z,0.69
2022-12-03T12:41:12.216Z,0.69
2022-12-03T12:42:15.451Z,0.69
2022-12-03T12:43:23.463Z,0.69
2022-12-03T12:44:58.773Z,0.69
2022-12-03T12:46:18.526Z,0.69
2022-12-03T12:47:45.575Z,0.69
2022-12-03T12:49:20.440Z,0.69
2022-12-03T12:50:29.407Z,0.69
2022-12-03T12:51:32.227Z,0.69
2022-12-03T12:53:06.987Z,0.75
2022-12-03T12:54:09.827Z,0.75
2022-12-03T12:55:12.536Z,0.75
2022-12-03T12:56:47.014Z,0.75
2022-12-03T12:57:49.898Z,0.75
2022-12-03T12:58:52.644Z,0.75
2022-12-03T13:00:12.296Z,0.75
2022-12-03T13:01:15.346Z,0.75
2022-12-03T13:02:19.256Z,0.75
2022-12-03T13:03:54.672Z,0.75
2022-12-03T13:04:57.451Z,0.75
2022-12-03T13:06:00.204Z,0.75
2022-12-03T13:07:34.893Z,0.75
2022-12-03T13:08:45.115Z,0.75
2022-12-03T13:09:48.048Z,0.75
2022-12-03T13:11:22.910Z,0.75
2022-12-03T13:12:25.923Z,0.75
2022-12-03T13:13:28.667Z,0.75
2022-12-03T13:15:10.750Z,0.75
2022-12-03T13:16:13.603Z,0.75
2022-12-03T13:17:17.291Z,0.75
2022-12-03T13:18:51.947Z,0.81
2022-12-03T13:20:05.191Z,0.81
2022-12-03T13:21:11.093Z,0.81
2022-12-03T13:22:45.770Z,0.81
2022-12-03T13:23:48.600Z,0.81
2022-12-03T13:24:51.381Z,0.81
2022-12-03T13:27:23.939Z,0.88
2022-12-03T13:28:26.824Z,0.88
2022-12-03T13:29:29.567Z,0.88
2022-12-03T13:31:04.632Z,0.81
2022-12-03T13:32:08.085Z,0.81
2022-12-03T13:33:11.023Z,0.88
2022-12-03T13:34:45.572Z,0.88
2022-12-03T13:35:48.281Z,0.88
2022-12-03T13:36:57.648Z,0.88
2022-12-03T13:38:33.171Z,0.88
2022-12-03T13:39:36.111Z,0.81
2022-12-03T13:40:39.592Z,0.81
2022-12-03T13:42:14.094Z,0.81
2022-12-03T13:43:17.328Z,0.81
2022-12-03T13:44:25.259Z,0.81
2022-12-03T13:46:00.357Z,0.75
2022-12-03T13:47:03.799Z,0.75
2022-12-03T13:48:06.500Z,0.75
2022-12-03T13:49:47.819Z,0.75
2022-12-03T13:50:51.281Z,0.75
2022-12-03T13:51:54.381Z,0.75
2022-12-03T13:53:28.939Z,0.75
2022-12-03T13:54:31.746Z,0.75
2022-12-03T13:55:34.605Z,0.75
2022-12-03T13:57:09.106Z,0.75
2022-12-03T13:58:12.047Z,0.75
2022-12-03T13:59:14.874Z,0.69
2022-12-03T14:00:11.750Z,0.69
2022-12-03T14:01:14.784Z,0.69
2022-12-03T14:02:18.537Z,0.69
2022-12-03T14:03:54.081Z,0.69
2022-12-03T14:05:00.002Z,0.69
2022-12-03T14:06:03.444Z,0.69
2022-12-03T14:07:38.218Z,0.69
2022-12-03T14:08:41.595Z,0.75
2022-12-03T14:09:44.457Z,0.75
2022-12-03T14:11:19.672Z,0.75
2022-12-03T14:12:22.553Z,0.69
2022-12-03T14:13:25.573Z,0.69
2022-12-03T14:15:00.298Z,0.69
2022-12-03T14:16:03.140Z,0.69
2022-12-03T14:17:06.729Z,0.69
2022-12-03T14:18:41.599Z,0.63
2022-12-03T14:19:44.234Z,0.63
2022-12-03T14:20:48.038Z,0.56
2022-12-03T14:22:22.634Z,0.56
2022-12-03T14:23:32.550Z,0.56
2022-12-03T14:24:35.451Z,0.50
2022-12-03T14:26:10.188Z,0.50
2022-12-03T14:27:13.033Z,0.50
2022-12-03T14:28:15.754Z,0.44
2022-12-03T14:29:55.408Z,0.44
2022-12-03T14:30:58.394Z,0.44
2022-12-03T14:32:01.592Z,0.44
2022-12-03T14:33:36.632Z,0.50
2022-12-03T14:34:39.441Z,0.50
2022-12-03T14:35:48.734Z,0.50
2022-12-03T14:37:23.497Z,0.50
2022-12-03T14:38:26.303Z,0.50
2022-12-03T14:39:29.034Z,0.50
2022-12-03T14:41:08.050Z,0.44
2022-12-03T14:42:10.768Z,0.44
2022-12-03T14:43:13.586Z,0.44
2022-12-03T14:44:48.244Z,0.44
2022-12-03T14:45:51.166Z,0.44
2022-12-03T14:46:57.321Z,0.44
2022-12-03T14:48:32.404Z,0.44
2022-12-03T14:49:35.183Z,0.44
2022-12-03T14:50:39.018Z,0.44
2022-12-03T14:52:13.813Z,0.44
2022-12-03T14:53:16.687Z,0.44
2022-12-03T14:54:24.700Z,0.44
2022-12-03T14:55:59.811Z,0.44
2022-12-03T14:57:02.548Z,0.44
2022-12-03T14:58:05.371Z,0.44
2022-12-03T14:59:39.967Z,0.44
2022-12-03T15:00:12.292Z,0.44
2022-12-03T15:01:15.049Z,0.44
2022-12-03T15:02:18.691Z,0.44
2022-12-03T15:03:54.227Z,0.38
2022-12-03T15:04:57.081Z,0.38
2022-12-03T15:06:08.472Z,0.38
2022-12-03T15:07:43.314Z,0.38
2022-12-03T15:08:46.760Z,0.44
2022-12-03T15:09:49.493Z,0.38
2022-12-03T15:11:24.590Z,0.38
2022-12-03T15:12:32.511Z,0.38
2022-12-03T15:13:35.376Z,0.38
2022-12-03T15:15:09.809Z,0.38
2022-12-03T15:16:12.758Z,0.38
2022-12-03T15:17:16.037Z,0.38
2022-12-03T15:19:00.921Z,0.31
2022-12-03T15:20:03.723Z,0.31
2022-12-03T15:21:06.395Z,0.31
2022-12-03T15:22:41.014Z,0.31
2022-12-03T15:23:49.240Z,0.31
2022-12-03T15:24:52.057Z,0.31
2022-12-03T15:26:26.567Z,0.31
2022-12-03T15:27:29.427Z,0.31
2022-12-03T15:28:32.224Z,0.31
2022-12-03T15:30:11.822Z,0.31
2022-12-03T15:31:14.745Z,0.31
2022-12-03T15:32:18.015Z,0.31
2022-12-03T15:33:52.694Z,0.31
2022-12-03T15:35:03.083Z,0.31
2022-12-03T15:36:05.911Z,0.31
2022-12-03T15:37:40.527Z,0.31
2022-12-03T15:38:43.403Z,0.25
2022-12-03T15:39:48.671Z,0.25
2022-12-03T15:41:24.151Z,0.25
2022-12-03T15:42:27.172Z,0.25
2022-12-03T15:43:30.007Z,0.25
2022-12-03T15:45:04.653Z,0.19
2022-12-03T15:46:12.579Z,0.19
2022-12-03T15:47:16.307Z,0.19
2022-12-03T15:48:50.926Z,0.13
2022-12-03T15:49:53.945Z,0.13
2022-12-03T15:50:57.121Z,0.13
2022-12-03T15:52:31.556Z,0.19
2022-12-03T15:53:34.388Z,0.13
2022-12-03T15:54:37.087Z,0.13
2022-12-03T15:56:11.582Z,0.13
2022-12-03T15:57:14.294Z,0.19
2022-12-03T15:58:17.156Z,0.13
2022-12-03T15:59:52.388Z,0.13
2022-12-03T16:00:12.011Z,0.19
2022-12-03T16:01:14.791Z,0.13
2022-12-03T16:02:18.497Z,0.19
2022-12-03T16:04:00.001Z,0.13
2022-12-03T16:05:02.799Z,0.13
2022-12-03T16:06:05.581Z,0.19
2022-12-03T16:07:40.239Z,0.19
2022-12-03T16:08:43.680Z,0.19
2022-12-03T16:09:46.515Z,0.19
2022-12-03T16:11:21.808Z,0.19
2022-12-03T16:12:24.564Z,0.13
2022-12-03T16:13:27.491Z,0.13
2022-12-03T16:15:01.987Z,0.13
2022-12-03T16:16:13.090Z,0.13
2022-12-03T16:17:16.807Z,0.13
2022-12-03T16:18:51.433Z,0.13
2022-12-03T16:19:54.554Z,0.13
2022-12-03T16:20:57.458Z,0.13
2022-12-03T16:22:39.193Z,0.13
2022-12-03T16:23:41.892Z,0.13